Indialantic, Florida
Current Conditions -  °F | °C
As of 4:53 PM on Wednesday 28 Jan 2015 (Local Time) from KMLB Reporting Station
Few Clouds Few Clouds  
Wind Chill: 59°   Ceiling: Unl
Heat Index: 59°   Visibility: 10mi
Dew Point: 45°   Wind: 14mph
Humidity: 60%   Direction: 10°N
Pressure: 30.19"   Gusts: NA
Location:  28.09°N, 80.57°W
Report Text: KMLB 282153Z 01012KT 10SM FEW040 15/07 A3019 RMK AO2 SLP223 T01500072
Loading
Personal Weather Stations






























Interactive Weather Map New forecast layout! Learn more

10-Day Weather Forecast

Advertisements
Track Severe Weather on mobile